createdAt,value
2019-04-05T00:01:10.625Z,10.50
2019-04-05T00:03:38.089Z,10.07
2019-04-05T00:06:05.432Z,12.47
2019-04-05T00:08:32.740Z,11.43
2019-04-05T00:11:00.592Z,12.30
2019-04-05T00:13:27.945Z,12.00
2019-04-05T00:15:55.392Z,11.70
2019-04-05T00:18:22.744Z,11.90
2019-04-05T00:20:50.028Z,12.00
2019-04-05T00:23:17.332Z,11.77
2019-04-05T00:25:44.609Z,11.73
2019-04-05T00:28:11.885Z,12.10
2019-04-05T00:30:39.270Z,10.87
2019-04-05T00:33:06.554Z,13.10
2019-04-05T00:35:33.849Z,11.17
2019-04-05T00:38:01.169Z,12.57
2019-04-05T00:40:28.549Z,12.97
2019-04-05T00:42:55.831Z,11.77
2019-04-05T00:45:28.282Z,11.70
2019-04-05T00:47:52.204Z,11.13
2019-04-05T00:50:19.709Z,11.23
2019-04-05T00:52:47.933Z,11.50
2019-04-05T00:55:15.369Z,12.30
2019-04-05T00:57:42.633Z,12.30
2019-04-05T01:00:11.703Z,12.27
2019-04-05T01:02:38.973Z,11.77
2019-04-05T01:05:06.944Z,12.70
2019-04-05T01:07:34.320Z,11.80
2019-04-05T01:10:01.697Z,11.67
2019-04-05T01:12:29.041Z,11.30
2019-04-05T01:14:56.737Z,12.27
2019-04-05T01:17:25.186Z,12.13
2019-04-05T01:19:54.298Z,12.33
2019-04-05T01:22:23.211Z,11.87
2019-04-05T01:24:50.687Z,11.07
2019-04-05T01:27:19.108Z,12.90
2019-04-05T01:29:46.504Z,12.10
2019-04-05T01:32:13.789Z,13.00
2019-04-05T01:34:41.144Z,12.30
2019-04-05T01:37:08.462Z,12.63
2019-04-05T01:39:35.742Z,12.10
2019-04-05T01:42:03.020Z,11.77
2019-04-05T01:44:30.324Z,10.97
2019-04-05T01:46:57.669Z,11.60
2019-04-05T01:49:25.024Z,11.87
2019-04-05T01:51:52.564Z,12.50
2019-04-05T01:54:19.836Z,11.67
2019-04-05T01:56:47.111Z,11.13
2019-04-05T01:59:14.427Z,10.50
2019-04-05T02:01:41.766Z,11.87
2019-04-05T02:04:09.034Z,11.63
2019-04-05T02:06:36.413Z,11.43
2019-04-05T02:09:06.860Z,11.20
2019-04-05T02:11:34.140Z,12.57
2019-04-05T02:14:01.509Z,11.40
2019-04-05T02:16:28.859Z,12.23
2019-04-05T02:18:56.200Z,11.60
2019-04-05T02:21:23.648Z,10.73
2019-04-05T02:23:50.916Z,12.37
2019-04-05T02:26:18.286Z,12.17
2019-04-05T02:28:45.589Z,11.47
2019-04-05T02:31:12.865Z,12.07
2019-04-05T02:33:40.199Z,11.33
2019-04-05T02:36:07.525Z,12.47
2019-04-05T02:38:34.869Z,11.93
2019-04-05T02:41:02.896Z,12.13
2019-04-05T02:43:31.651Z,11.70
2019-04-05T02:45:59.561Z,12.40
2019-04-05T02:48:28.413Z,11.33
2019-04-05T02:50:57.262Z,11.33
2019-04-05T02:53:24.678Z,12.57
2019-04-05T02:55:52.650Z,12.20
2019-04-05T02:58:21.318Z,12.03
2019-04-05T03:00:48.826Z,11.80
2019-04-05T03:03:16.237Z,11.10
2019-04-05T03:05:44.222Z,11.60
2019-04-05T03:08:11.785Z,11.90
2019-04-05T03:10:43.642Z,11.40
2019-04-05T03:13:11.131Z,10.30
2019-04-05T03:15:38.790Z,11.50
2019-04-05T03:18:06.189Z,10.90
2019-04-05T03:20:33.565Z,10.80
2019-04-05T03:23:00.913Z,10.83
2019-04-05T03:25:28.261Z,12.90
2019-04-05T03:27:55.629Z,10.40
2019-04-05T03:30:22.980Z,12.70
2019-04-05T03:32:50.320Z,10.53
2019-04-05T03:35:18.007Z,10.67
2019-04-05T03:37:45.945Z,10.93
2019-04-05T03:40:13.226Z,12.40
2019-04-05T03:42:40.544Z,11.60
2019-04-05T03:45:08.205Z,11.03
2019-04-05T03:47:35.582Z,11.27
2019-04-05T03:50:03.900Z,10.60
2019-04-05T03:52:31.236Z,11.50
2019-04-05T03:54:58.594Z,11.10
2019-04-05T03:57:26.013Z,11.20
2019-04-05T03:59:53.373Z,11.40
2019-04-05T04:02:23.505Z,11.63
2019-04-05T04:04:49.763Z,11.70
2019-04-05T04:07:17.538Z,10.67
2019-04-05T04:09:44.868Z,11.23
2019-04-05T04:12:12.252Z,10.67
2019-04-05T04:14:39.733Z,11.70
2019-04-05T04:17:12.539Z,10.90
2019-04-05T04:19:36.549Z,11.03
2019-04-05T04:22:08.380Z,12.27
2019-04-05T04:24:36.444Z,12.40
2019-04-05T04:27:03.829Z,12.00
2019-04-05T04:29:31.172Z,12.77
2019-04-05T04:31:58.830Z,12.53
2019-04-05T04:34:26.665Z,13.27
2019-04-05T04:36:54.035Z,12.47
2019-04-05T04:39:21.477Z,12.50
2019-04-05T04:41:48.901Z,12.40
2019-04-05T04:44:17.152Z,12.70
2019-04-05T04:46:47.840Z,11.67
2019-04-05T04:49:13.830Z,12.80
2019-04-05T04:51:41.441Z,12.13
2019-04-05T04:54:08.777Z,12.57
2019-04-05T04:56:36.092Z,11.77
2019-04-05T04:59:03.444Z,13.00
2019-04-05T05:01:30.893Z,12.07
2019-04-05T05:03:58.367Z,12.03
2019-04-05T05:06:25.701Z,11.57
2019-04-05T05:08:53.052Z,12.20
2019-04-05T05:11:20.455Z,12.23
2019-04-05T05:13:47.883Z,12.27
2019-04-05T05:16:15.421Z,11.90
2019-04-05T05:18:42.723Z,11.87
2019-04-05T05:21:09.998Z,11.00
2019-04-05T05:23:37.345Z,11.60
2019-04-05T05:26:05.173Z,11.73
2019-04-05T05:28:32.854Z,13.00
2019-04-05T05:31:00.417Z,11.00
2019-04-05T05:33:27.808Z,10.90
2019-04-05T05:35:55.156Z,11.50
2019-04-05T05:38:22.429Z,11.57
2019-04-05T05:40:49.822Z,11.03
2019-04-05T05:43:18.229Z,10.80
2019-04-05T05:45:45.568Z,11.27
2019-04-05T05:48:12.945Z,11.90
2019-04-05T05:50:41.089Z,10.43
2019-04-05T05:53:08.352Z,10.90
2019-04-05T05:55:35.669Z,11.97
2019-04-05T05:58:02.948Z,9.83
2019-04-05T06:00:31.051Z,11.00
2019-04-05T06:02:58.561Z,9.60
2019-04-05T06:05:25.833Z,9.80
2019-04-05T06:07:53.136Z,9.10
2019-04-05T06:10:20.843Z,9.73
2019-04-05T06:12:48.293Z,9.53
2019-04-05T06:15:15.701Z,9.47
2019-04-05T06:17:43.092Z,9.37
2019-04-05T06:20:10.629Z,9.63
2019-04-05T06:22:37.976Z,8.60
2019-04-05T06:25:06.154Z,8.73
2019-04-05T06:27:35.425Z,9.93
2019-04-05T06:30:02.609Z,9.27
2019-04-05T06:32:29.972Z,10.77
2019-04-05T06:34:57.245Z,11.00
2019-04-05T06:37:24.521Z,9.60
2019-04-05T06:39:51.832Z,11.60
2019-04-05T06:42:19.212Z,10.23
2019-04-05T06:44:49.296Z,10.73
2019-04-05T06:47:16.677Z,10.50
2019-04-05T06:49:43.988Z,11.40
2019-04-05T06:52:11.289Z,13.20
2019-04-05T06:54:38.685Z,14.03
2019-04-05T06:57:05.987Z,10.97
2019-04-05T06:59:33.272Z,11.87
2019-04-05T07:02:00.681Z,11.73
2019-04-05T07:04:30.755Z,10.60
2019-04-05T07:06:56.966Z,11.63
2019-04-05T07:09:24.281Z,11.50
2019-04-05T07:11:51.581Z,11.40
2019-04-05T07:14:19.656Z,12.97
2019-04-05T07:16:47.609Z,11.80
2019-04-05T07:19:14.888Z,12.33
2019-04-05T07:21:42.186Z,11.90
2019-04-05T07:24:09.645Z,11.43
2019-04-05T07:26:36.980Z,13.17
2019-04-05T07:29:04.270Z,11.83
2019-04-05T07:31:31.645Z,11.40
2019-04-05T07:33:58.916Z,12.47
2019-04-05T07:36:26.197Z,13.03
2019-04-05T07:38:53.543Z,12.00
2019-04-05T07:41:20.872Z,15.13
2019-04-05T07:43:48.240Z,12.60
2019-04-05T07:46:15.628Z,12.40
2019-04-05T07:48:45.125Z,12.57
2019-04-05T07:51:11.937Z,11.73
2019-04-05T07:53:39.616Z,11.73
2019-04-05T07:56:06.897Z,12.23
2019-04-05T07:58:34.189Z,12.50
2019-04-05T08:01:03.060Z,12.67
2019-04-05T08:03:30.336Z,11.83
2019-04-05T08:05:57.616Z,12.37
2019-04-05T08:08:35.489Z,12.17
2019-04-05T08:11:02.836Z,13.23
2019-04-05T08:13:30.876Z,13.40
2019-04-05T08:16:01.281Z,13.87
2019-04-05T08:18:28.568Z,12.97
2019-04-05T08:20:55.850Z,13.33
2019-04-05T08:23:23.233Z,13.20
2019-04-05T08:25:50.510Z,12.27
2019-04-05T08:28:17.879Z,12.87
2019-04-05T08:30:45.672Z,13.77
2019-04-05T08:33:13.016Z,13.30
2019-04-05T08:35:40.294Z,14.07
2019-04-05T08:38:07.665Z,12.57
2019-04-05T08:40:34.936Z,14.47
2019-04-05T08:43:02.221Z,15.37
2019-04-05T08:45:29.541Z,13.67
2019-04-05T08:47:56.928Z,14.07
2019-04-05T08:50:24.218Z,16.00
2019-04-05T08:52:53.313Z,14.83
2019-04-05T08:55:20.630Z,15.60
2019-04-05T08:57:48.171Z,14.40
2019-04-05T09:00:16.021Z,15.63
2019-04-05T09:02:43.347Z,16.10
2019-04-05T09:05:10.746Z,17.07
2019-04-05T09:07:38.257Z,18.67
2019-04-05T09:10:06.001Z,16.90
2019-04-05T09:12:33.298Z,16.60
2019-04-05T09:15:00.642Z,15.27
2019-04-05T09:17:29.661Z,17.00
2019-04-05T09:19:57.349Z,18.70
2019-04-05T09:22:25.757Z,20.03
2019-04-05T09:24:53.061Z,18.63
2019-04-05T09:27:20.476Z,16.37
2019-04-05T09:29:49.059Z,17.13
2019-04-05T09:32:16.440Z,18.27
2019-04-05T09:34:45.099Z,17.00
2019-04-05T09:37:14.325Z,18.13
2019-04-05T09:39:43.356Z,17.93
2019-04-05T09:42:10.823Z,18.93
2019-04-05T09:44:39.881Z,19.70
2019-04-05T09:47:07.343Z,19.70
2019-04-05T09:49:36.840Z,19.27
2019-04-05T09:52:06.032Z,18.13
2019-04-05T09:54:33.408Z,18.47
2019-04-05T09:57:00.789Z,18.77
2019-04-05T09:59:28.122Z,21.07
2019-04-05T10:01:55.797Z,19.37
2019-04-05T10:04:23.183Z,20.60
2019-04-05T10:06:51.622Z,19.50
2019-04-05T10:09:19.889Z,20.73
2019-04-05T10:11:47.253Z,19.57
2019-04-05T10:14:14.702Z,19.40
2019-04-05T10:16:42.019Z,17.57
2019-04-05T10:19:09.391Z,20.30
2019-04-05T10:21:36.732Z,20.37
2019-04-05T10:24:06.584Z,21.00
2019-04-05T10:26:33.971Z,19.33
2019-04-05T10:29:01.480Z,19.80
2019-04-05T10:31:28.862Z,21.30
2019-04-05T10:33:56.278Z,21.93
2019-04-05T10:36:23.689Z,23.57
2019-04-05T10:38:51.124Z,26.20
2019-04-05T10:41:18.445Z,23.43
2019-04-05T10:43:47.058Z,24.20
2019-04-05T10:46:14.449Z,25.70
2019-04-05T10:48:41.852Z,22.43
2019-04-05T10:51:09.331Z,22.60
2019-04-05T10:53:36.777Z,23.23
2019-04-05T10:56:04.223Z,23.23
2019-04-05T10:58:31.724Z,24.50
2019-04-05T11:01:00.534Z,24.77
2019-04-05T11:03:27.943Z,25.97
2019-04-05T11:05:55.379Z,26.60
2019-04-05T11:08:22.853Z,27.03
2019-04-05T11:10:50.232Z,25.20
2019-04-05T11:13:17.729Z,25.40
2019-04-05T11:15:46.123Z,27.40
2019-04-05T11:18:13.495Z,25.73
2019-04-05T11:20:42.441Z,27.53
2019-04-05T11:23:09.881Z,28.70
2019-04-05T11:25:37.280Z,28.30
2019-04-05T11:28:05.222Z,30.80
2019-04-05T11:30:37.043Z,27.97
2019-04-05T11:33:04.436Z,27.97
2019-04-05T11:35:34.292Z,28.60
2019-04-05T11:38:01.676Z,27.20
2019-04-05T11:40:29.071Z,26.10
2019-04-05T11:42:57.732Z,25.63
2019-04-05T11:45:25.188Z,26.57
2019-04-05T11:47:57.668Z,27.07
2019-04-05T11:50:34.562Z,27.57
2019-04-05T11:52:54.851Z,26.00
2019-04-05T11:55:24.089Z,26.40
2019-04-05T11:57:54.533Z,25.43
2019-04-05T12:00:38.609Z,28.00
2019-04-05T12:03:16.600Z,24.43
2019-04-05T12:05:46.631Z,27.80
2019-04-05T12:08:14.012Z,29.23
2019-04-05T12:10:41.519Z,32.57
2019-04-05T12:13:10.547Z,30.27
2019-04-05T12:15:39.453Z,29.13
2019-04-05T12:18:06.897Z,28.43
2019-04-05T12:20:47.355Z,28.30
2019-04-05T12:23:03.367Z,29.83
2019-04-05T12:25:33.431Z,30.67
2019-04-05T12:28:06.742Z,30.50
2019-04-05T12:30:30.366Z,29.37
2019-04-05T12:32:57.854Z,30.17
2019-04-05T12:35:25.223Z,31.97
2019-04-05T12:37:55.508Z,32.40
2019-04-05T12:40:21.769Z,28.30
2019-04-05T12:42:49.073Z,31.93
2019-04-05T12:45:16.435Z,29.67
2019-04-05T12:47:45.597Z,30.40
2019-04-05T12:50:14.639Z,27.57
2019-04-05T12:52:42.279Z,29.13
2019-04-05T12:55:09.724Z,30.53
2019-04-05T12:57:38.662Z,31.73
2019-04-05T13:00:14.725Z,29.73
2019-04-05T13:02:42.337Z,30.83
2019-04-05T13:05:09.770Z,30.40
2019-04-05T13:07:37.143Z,29.03
2019-04-05T13:10:05.455Z,31.70
2019-04-05T13:12:32.838Z,34.30
2019-04-05T13:15:12.220Z,31.80
2019-04-05T13:17:31.062Z,32.50
2019-04-05T13:19:58.433Z,33.90
2019-04-05T13:22:27.329Z,34.50
2019-04-05T13:24:54.670Z,30.60
2019-04-05T13:27:21.955Z,31.27
2019-04-05T13:29:51.324Z,29.90
2019-04-05T13:32:21.530Z,31.33
2019-04-05T13:34:47.608Z,30.90
2019-04-05T13:37:20.383Z,29.87
2019-04-05T13:39:43.916Z,30.37
2019-04-05T13:42:11.185Z,30.40
2019-04-05T13:44:38.509Z,27.93
2019-04-05T13:47:08.086Z,28.10
2019-04-05T13:49:34.821Z,29.10
2019-04-05T13:52:02.344Z,27.63
2019-04-05T13:54:29.622Z,26.50
2019-04-05T13:56:56.959Z,28.23
2019-04-05T13:59:24.292Z,27.37
2019-04-05T14:01:51.648Z,28.67
2019-04-05T14:04:20.662Z,28.07
2019-04-05T14:06:48.038Z,29.40
2019-04-05T14:09:15.700Z,29.03
2019-04-05T14:11:43.197Z,29.90
2019-04-05T14:14:12.099Z,29.80
2019-04-05T14:16:42.592Z,28.80
2019-04-05T14:19:08.613Z,30.17
2019-04-05T14:21:40.858Z,29.43
2019-04-05T14:24:04.959Z,29.53
2019-04-05T14:26:32.348Z,31.47
2019-04-05T14:29:03.414Z,30.10
2019-04-05T14:31:29.572Z,28.30
2019-04-05T14:33:57.707Z,28.60
2019-04-05T14:36:25.105Z,28.13
2019-04-05T14:38:52.524Z,28.50
2019-04-05T14:41:19.893Z,30.20
2019-04-05T14:43:47.217Z,28.97
2019-04-05T14:46:14.568Z,29.40
2019-04-05T14:48:41.944Z,27.27
2019-04-05T14:51:09.354Z,25.00
2019-04-05T14:53:36.784Z,23.63
2019-04-05T14:56:04.134Z,24.87
2019-04-05T14:58:31.564Z,24.87
2019-04-05T15:00:59.001Z,24.10
2019-04-05T15:03:26.297Z,24.53
2019-04-05T15:05:53.684Z,26.87
2019-04-05T15:08:21.231Z,25.70
2019-04-05T15:10:51.214Z,22.60
2019-04-05T15:13:17.761Z,25.97
2019-04-05T15:15:45.114Z,24.57
2019-04-05T15:18:12.459Z,24.70
2019-04-05T15:20:40.770Z,25.37
2019-04-05T15:23:09.532Z,24.20
2019-04-05T15:25:37.188Z,24.50
2019-04-05T15:28:04.507Z,22.10
2019-04-05T15:30:31.796Z,21.80
2019-04-05T15:33:00.805Z,22.57
2019-04-05T15:35:28.692Z,22.07
2019-04-05T15:37:56.080Z,22.60
2019-04-05T15:40:23.345Z,21.97
2019-04-05T15:42:50.956Z,20.33
2019-04-05T15:45:18.362Z,18.43
2019-04-05T15:47:45.646Z,18.60
2019-04-05T15:50:13.261Z,17.50
2019-04-05T15:52:40.570Z,19.73
2019-04-05T15:55:08.080Z,16.87
2019-04-05T15:57:35.476Z,17.73
2019-04-05T16:00:04.954Z,16.13
2019-04-05T16:02:33.604Z,14.97
2019-04-05T16:05:01.049Z,16.20
2019-04-05T16:07:28.334Z,15.30
2019-04-05T16:09:55.600Z,14.53
2019-04-05T16:12:22.937Z,15.50
2019-04-05T16:14:50.304Z,17.70
2019-04-05T16:17:17.608Z,15.80
2019-04-05T16:19:45.060Z,15.80
2019-04-05T16:22:12.418Z,17.70
2019-04-05T16:24:39.712Z,16.33
2019-04-05T16:27:07.096Z,16.20
2019-04-05T16:29:34.464Z,17.03
2019-04-05T16:32:01.773Z,21.10
2019-04-05T16:34:29.182Z,15.87
2019-04-05T16:36:56.642Z,16.73
2019-04-05T16:39:24.001Z,16.90
2019-04-05T16:41:51.666Z,16.00
2019-04-05T16:44:19.044Z,16.00
2019-04-05T16:46:47.260Z,16.50
2019-04-05T16:49:14.650Z,16.07
2019-04-05T16:51:41.965Z,16.10
2019-04-05T16:54:09.483Z,16.97
2019-04-05T16:56:36.872Z,17.93
2019-04-05T16:59:04.465Z,18.47
2019-04-05T17:01:31.764Z,17.80
2019-04-05T17:03:59.174Z,18.40
2019-04-05T17:06:26.476Z,17.37
2019-04-05T17:08:53.774Z,18.20
2019-04-05T17:11:21.114Z,17.67
2019-04-05T17:13:48.533Z,17.00
2019-04-05T17:16:15.879Z,16.37
2019-04-05T17:18:43.198Z,15.60
2019-04-05T17:21:10.572Z,15.80
2019-04-05T17:23:37.859Z,14.67
2019-04-05T17:26:05.243Z,14.93
2019-04-05T17:28:33.589Z,15.87
2019-04-05T17:31:00.879Z,15.17
2019-04-05T17:33:28.363Z,16.10
2019-04-05T17:35:55.718Z,16.70
2019-04-05T17:38:22.985Z,16.73
2019-04-05T17:40:50.301Z,16.83
2019-04-05T17:43:20.035Z,16.73
2019-04-05T17:45:47.380Z,17.00
2019-04-05T17:48:14.986Z,17.97
2019-04-05T17:50:42.983Z,16.90
2019-04-05T17:53:13.222Z,17.87
2019-04-05T17:55:39.373Z,15.37
2019-04-05T17:58:07.135Z,15.93
2019-04-05T18:00:34.495Z,16.23
2019-04-05T18:03:02.025Z,14.40
2019-04-05T18:05:29.336Z,14.67
2019-04-05T18:07:56.723Z,14.73
2019-04-05T18:10:24.192Z,15.67
2019-04-05T18:12:51.573Z,14.90
2019-04-05T18:15:18.951Z,16.87
2019-04-05T18:17:46.268Z,16.33
2019-04-05T18:20:13.628Z,16.20
2019-04-05T18:22:40.906Z,18.30
2019-04-05T18:25:09.621Z,16.27
2019-04-05T18:27:37.013Z,16.60
2019-04-05T18:30:06.501Z,16.83
2019-04-05T18:32:33.957Z,15.60
2019-04-05T18:35:01.825Z,16.70
2019-04-05T18:37:29.156Z,16.77
2019-04-05T18:39:56.779Z,17.40
2019-04-05T18:42:24.092Z,16.50
2019-04-05T18:44:53.836Z,16.93
2019-04-05T18:47:21.310Z,16.10
2019-04-05T18:49:48.607Z,16.47
2019-04-05T18:52:15.961Z,16.40
2019-04-05T18:54:43.348Z,16.27
2019-04-05T18:57:10.715Z,17.80
2019-04-05T18:59:38.111Z,18.10
2019-04-05T19:02:05.436Z,18.17
2019-04-05T19:04:32.878Z,16.57
2019-04-05T19:07:00.241Z,16.37
2019-04-05T19:09:27.698Z,17.00
2019-04-05T19:11:55.409Z,16.60
2019-04-05T19:14:22.778Z,16.00
2019-04-05T19:16:50.236Z,15.50
2019-04-05T19:19:19.228Z,15.90
2019-04-05T19:21:46.518Z,16.80
2019-04-05T19:24:13.824Z,16.87
2019-04-05T19:26:41.121Z,20.73
2019-04-05T19:29:08.392Z,19.20
2019-04-05T19:49:04.441Z,12.13
2019-04-05T19:51:31.734Z,11.70
2019-04-05T19:54:01.689Z,11.70
2019-04-05T19:56:29.197Z,12.40
2019-04-05T19:58:56.573Z,12.20
2019-04-05T20:01:23.976Z,12.10
2019-04-05T20:03:51.284Z,11.77
2019-04-05T20:06:18.633Z,10.80
2019-04-05T20:08:45.945Z,10.77
2019-04-05T20:11:13.240Z,12.60
2019-04-05T20:13:52.777Z,11.30
2019-04-05T20:16:20.239Z,12.73
2019-04-05T20:18:47.614Z,12.30
2019-04-05T20:21:14.982Z,12.73
2019-04-05T20:23:47.343Z,13.33
2019-04-05T20:26:11.297Z,13.10
2019-04-05T20:28:38.583Z,13.63
2019-04-05T20:31:06.949Z,14.50
2019-04-05T20:33:34.247Z,14.17
2019-04-05T20:36:01.613Z,15.10
2019-04-05T20:38:28.953Z,16.07
2019-04-05T20:40:56.306Z,14.57
2019-04-05T20:43:23.663Z,13.97
2019-04-05T20:45:51.138Z,12.47
2019-04-05T20:48:18.420Z,13.17
2019-04-05T20:50:45.709Z,14.07
2019-04-05T20:53:13.084Z,12.97
2019-04-05T20:55:40.381Z,12.13
2019-04-05T20:58:07.644Z,11.40
2019-04-05T21:00:34.968Z,10.90
2019-04-05T21:03:02.264Z,9.83
2019-04-05T21:05:29.616Z,11.97
2019-04-05T21:07:56.943Z,11.17
2019-04-05T21:10:24.261Z,10.70
2019-04-05T21:12:51.667Z,9.50
2019-04-05T21:15:18.971Z,8.30
2019-04-05T21:17:46.244Z,8.60
2019-04-05T21:20:13.709Z,9.53
2019-04-05T21:22:41.204Z,10.67
2019-04-05T21:25:08.560Z,7.17
2019-04-05T21:27:35.838Z,7.73
2019-04-05T21:30:04.797Z,9.40
2019-04-05T21:32:32.080Z,8.90
2019-04-05T21:34:59.443Z,7.87
2019-04-05T21:37:26.817Z,7.90
2019-04-05T21:39:54.105Z,9.13
2019-04-05T21:42:21.467Z,8.60
2019-04-05T21:44:48.780Z,9.00
2019-04-05T21:47:16.061Z,8.53
2019-04-05T21:49:43.330Z,9.17
2019-04-05T21:52:11.094Z,8.47
2019-04-05T21:54:47.138Z,9.70
2019-04-05T21:57:07.505Z,9.20
2019-04-05T21:59:34.813Z,9.03
2019-04-05T22:02:02.229Z,9.50
2019-04-05T22:04:29.515Z,7.90
2019-04-05T22:06:56.805Z,8.47
2019-04-05T22:09:24.648Z,8.70
2019-04-05T22:11:53.100Z,8.93
2019-04-05T22:14:20.460Z,8.90
2019-04-05T22:16:47.814Z,8.83
2019-04-05T22:19:15.077Z,8.50
2019-04-05T22:21:42.457Z,8.43
2019-04-05T22:24:09.733Z,8.87
2019-04-05T22:26:36.999Z,8.27
2019-04-05T22:29:04.300Z,7.90
2019-04-05T22:31:31.588Z,7.20
2019-04-05T22:33:58.853Z,8.10
2019-04-05T22:36:27.332Z,8.87
2019-04-05T22:38:54.615Z,9.37
2019-04-05T22:41:21.936Z,9.20
2019-04-05T22:43:49.243Z,9.30
2019-04-05T22:46:16.513Z,9.60
2019-04-05T22:48:43.819Z,9.70
2019-04-05T22:51:11.475Z,7.80
2019-04-05T22:53:38.828Z,10.37
2019-04-05T22:56:06.166Z,8.70
2019-04-05T22:58:33.529Z,8.93
2019-04-05T23:01:00.916Z,9.63
2019-04-05T23:03:28.192Z,9.03
2019-04-05T23:05:55.483Z,9.60
2019-04-05T23:08:22.823Z,9.00
2019-04-05T23:10:50.092Z,9.07
2019-04-05T23:13:17.393Z,10.23
2019-04-05T23:15:44.669Z,10.97
2019-04-05T23:18:11.948Z,10.60
2019-04-05T23:20:39.305Z,10.43
2019-04-05T23:23:06.678Z,10.10
2019-04-05T23:25:34.022Z,10.07
2019-04-05T23:28:01.327Z,8.47
2019-04-05T23:30:30.384Z,9.00
2019-04-05T23:32:57.660Z,8.63
2019-04-05T23:35:25.017Z,9.60
2019-04-05T23:37:52.293Z,8.73
2019-04-05T23:40:19.591Z,10.37
2019-04-05T23:42:47.148Z,10.00
2019-04-05T23:45:14.441Z,9.97
2019-04-05T23:47:41.717Z,9.13
2019-04-05T23:50:09.300Z,8.60
2019-04-05T23:52:36.664Z,9.97
2019-04-05T23:55:04.984Z,11.07
2019-04-05T23:57:32.288Z,9.80
2019-04-05T23:59:59.577Z,10.43
